createdAt,value
2023-05-18T00:00:34.171Z,3.30
2023-05-18T00:03:20.258Z,3.50
2023-05-18T00:05:49.232Z,3.80
2023-05-18T00:08:16.867Z,3.90
2023-05-18T00:10:44.492Z,3.00
2023-05-18T00:13:12.100Z,4.00
2023-05-18T00:15:39.792Z,3.20
2023-05-18T00:18:08.665Z,3.10
2023-05-18T00:20:36.825Z,3.30
2023-05-18T00:23:06.148Z,3.20
2023-05-18T00:25:33.766Z,3.40
2023-05-18T00:28:01.756Z,3.40
2023-05-18T00:30:30.643Z,4.30
2023-05-18T00:32:58.335Z,3.00
2023-05-18T00:35:26.023Z,3.30
2023-05-18T00:37:53.663Z,4.00
2023-05-18T00:40:21.874Z,4.30
2023-05-18T00:42:49.586Z,3.60
2023-05-18T00:45:18.760Z,3.70
2023-05-18T00:47:47.358Z,3.80
2023-05-18T00:50:15.208Z,3.10
2023-05-18T00:52:43.841Z,3.30
2023-05-18T00:55:12.638Z,3.40
2023-05-18T00:57:42.170Z,3.60
2023-05-18T01:00:13.825Z,3.60
2023-05-18T01:02:45.437Z,3.30
2023-05-18T01:05:13.506Z,3.50
2023-05-18T01:07:44.415Z,3.90
2023-05-18T01:10:14.958Z,3.10
2023-05-18T01:12:51.118Z,3.70
2023-05-18T01:15:20.991Z,3.80
2023-05-18T01:18:00.956Z,3.50
2023-05-18T01:20:51.971Z,3.50
2023-05-18T01:23:22.665Z,3.40
2023-05-18T01:25:55.472Z,3.80
2023-05-18T01:28:28.071Z,3.20
2023-05-18T01:30:56.615Z,3.10
2023-05-18T01:33:25.218Z,3.70
2023-05-18T01:35:53.517Z,3.60
2023-05-18T01:38:23.248Z,3.50
2023-05-18T01:40:58.849Z,4.20
2023-05-18T01:43:34.364Z,3.70
2023-05-18T01:46:32.978Z,2.90
2023-05-18T01:49:05.593Z,3.90
2023-05-18T01:51:36.473Z,4.10
2023-05-18T01:54:07.489Z,4.10
2023-05-18T01:56:39.797Z,3.60
2023-05-18T01:59:07.879Z,3.90
2023-05-18T02:01:35.761Z,3.60
2023-05-18T02:04:08.372Z,3.70
2023-05-18T02:06:37.109Z,3.70
2023-05-18T02:09:05.680Z,3.50
2023-05-18T02:11:33.969Z,3.90
2023-05-18T02:14:01.775Z,3.90
2023-05-18T02:16:29.447Z,3.50
2023-05-18T02:19:00.203Z,3.20
2023-05-18T02:21:27.999Z,3.60
2023-05-18T02:23:55.724Z,4.60
2023-05-18T02:26:23.361Z,4.00
2023-05-18T02:28:53.325Z,3.30
2023-05-18T02:31:21.098Z,3.80
2023-05-18T02:33:48.769Z,3.50
2023-05-18T02:36:18.517Z,3.90
2023-05-18T02:38:46.290Z,4.00
2023-05-18T02:41:14.162Z,3.90
2023-05-18T02:43:42.059Z,3.80
2023-05-18T02:46:09.754Z,3.70
2023-05-18T02:48:37.626Z,3.50
2023-05-18T02:51:05.538Z,3.60
2023-05-18T02:53:33.727Z,3.60
2023-05-18T02:56:06.557Z,3.90
2023-05-18T02:58:58.258Z,4.10
2023-05-18T03:01:31.253Z,3.70
2023-05-18T03:03:58.903Z,4.40
2023-05-18T03:06:27.217Z,3.50
2023-05-18T03:08:56.707Z,4.20
2023-05-18T03:11:30.057Z,4.70
2023-05-18T03:13:57.719Z,4.40
2023-05-18T03:16:29.111Z,3.70
2023-05-18T03:18:59.241Z,3.40
2023-05-18T03:21:34.009Z,3.90
2023-05-18T03:24:03.231Z,4.00
2023-05-18T03:26:31.547Z,4.00
2023-05-18T03:28:59.578Z,4.20
2023-05-18T03:31:27.918Z,3.80
2023-05-18T03:33:57.280Z,3.70
2023-05-18T03:36:28.175Z,4.00
2023-05-18T03:38:56.117Z,3.40
2023-05-18T03:41:24.258Z,3.40
2023-05-18T03:43:52.961Z,3.90
2023-05-18T03:46:20.616Z,4.60
2023-05-18T03:48:48.470Z,3.70
2023-05-18T03:51:19.801Z,3.80
2023-05-18T03:53:47.917Z,4.00
2023-05-18T03:56:15.899Z,3.80
2023-05-18T03:58:44.504Z,4.30
2023-05-18T04:01:12.162Z,4.30
2023-05-18T04:03:40.902Z,3.80
2023-05-18T04:06:10.267Z,3.70
2023-05-18T04:08:38.251Z,3.80
2023-05-18T04:11:06.906Z,3.60
2023-05-18T04:13:37.998Z,3.70
2023-05-18T04:16:06.103Z,3.90
2023-05-18T04:18:33.976Z,3.50
2023-05-18T04:21:03.229Z,3.60
2023-05-18T04:23:31.576Z,3.50
2023-05-18T04:25:59.949Z,3.30
2023-05-18T04:28:28.750Z,4.10
2023-05-18T04:30:56.399Z,3.30
2023-05-18T04:33:24.089Z,3.20
2023-05-18T04:35:58.918Z,3.20
2023-05-18T04:38:26.857Z,3.60
2023-05-18T04:40:55.261Z,4.00
2023-05-18T04:43:22.906Z,3.60
2023-05-18T04:45:51.359Z,3.50
2023-05-18T04:48:19.248Z,4.10
2023-05-18T04:50:47.493Z,3.50
2023-05-18T04:53:18.148Z,3.70
2023-05-18T04:55:46.832Z,3.60
2023-05-18T04:58:15.088Z,3.50
2023-05-18T05:00:43.746Z,3.90
2023-05-18T05:03:11.839Z,3.70
2023-05-18T05:05:39.613Z,3.80
2023-05-18T05:08:08.101Z,3.80
2023-05-18T05:10:35.759Z,3.60
2023-05-18T05:13:04.073Z,3.90
2023-05-18T05:15:31.966Z,4.00
2023-05-18T05:17:59.988Z,3.90
2023-05-18T05:20:27.785Z,4.00
2023-05-18T05:22:55.636Z,3.90
2023-05-18T05:25:26.029Z,3.80
2023-05-18T05:27:54.081Z,3.80
2023-05-18T05:30:22.447Z,3.70
2023-05-18T05:32:50.221Z,3.60
2023-05-18T05:35:18.645Z,3.20
2023-05-18T05:37:47.206Z,3.40
2023-05-18T05:40:16.199Z,3.60
2023-05-18T05:42:46.656Z,2.90
2023-05-18T05:45:14.617Z,3.30
2023-05-18T05:47:46.064Z,3.70
2023-05-18T05:50:14.551Z,3.50
2023-05-18T05:52:42.497Z,3.40
2023-05-18T05:55:10.561Z,3.30
2023-05-18T05:57:42.590Z,3.20
2023-05-18T06:00:12.754Z,2.80
2023-05-18T06:02:49.298Z,2.90
2023-05-18T06:05:23.154Z,3.40
2023-05-18T06:07:51.917Z,3.00
2023-05-18T06:10:19.602Z,2.50
2023-05-18T06:12:47.867Z,2.90
2023-05-18T06:15:16.108Z,2.70
2023-05-18T06:17:50.886Z,3.10
2023-05-18T06:20:18.633Z,3.10
2023-05-18T06:22:47.071Z,3.00
2023-05-18T06:25:31.129Z,2.40
2023-05-18T06:28:11.687Z,2.60
2023-05-18T06:31:02.286Z,3.00
2023-05-18T06:33:36.797Z,2.90
2023-05-18T06:36:04.793Z,3.30
2023-05-18T06:38:32.623Z,3.00
2023-05-18T06:41:00.348Z,2.70
2023-05-18T06:43:28.729Z,3.20
2023-05-18T06:46:23.894Z,2.70
2023-05-18T06:48:55.581Z,2.30
2023-05-18T06:51:23.296Z,2.60
2023-05-18T06:53:51.573Z,2.60
2023-05-18T06:56:19.444Z,2.40
2023-05-18T06:58:48.137Z,2.50
2023-05-18T07:01:17.838Z,2.50
2023-05-18T07:03:46.802Z,2.30
2023-05-18T07:06:14.587Z,2.00
2023-05-18T07:08:44.328Z,3.00
2023-05-18T07:11:11.970Z,2.00
2023-05-18T07:13:39.592Z,2.40
2023-05-18T07:16:07.237Z,2.30
2023-05-18T07:18:34.960Z,2.40
2023-05-18T07:21:02.649Z,2.30
2023-05-18T07:23:30.276Z,2.10
2023-05-18T07:25:57.892Z,2.10
2023-05-18T07:28:25.815Z,3.00
2023-05-18T07:30:53.457Z,2.30
2023-05-18T07:33:21.216Z,3.00
2023-05-18T07:35:48.854Z,2.00
2023-05-18T07:38:16.471Z,2.10
2023-05-18T07:40:44.089Z,2.40
2023-05-18T07:43:11.757Z,2.10
2023-05-18T07:45:39.689Z,2.80
2023-05-18T07:48:08.007Z,2.10
2023-05-18T07:50:36.019Z,2.40
2023-05-18T07:53:03.798Z,2.30
2023-05-18T07:55:31.932Z,2.40
2023-05-18T07:58:01.164Z,2.40
2023-05-18T08:00:29.344Z,2.70
2023-05-18T08:02:57.205Z,2.00
2023-05-18T08:05:25.103Z,2.10
2023-05-18T08:07:52.823Z,2.00
2023-05-18T08:10:20.551Z,1.90
2023-05-18T08:12:48.231Z,1.80
2023-05-18T08:15:16.135Z,2.40
2023-05-18T08:17:43.926Z,1.90
2023-05-18T08:20:12.085Z,1.60
2023-05-18T08:22:39.698Z,1.70
2023-05-18T08:25:07.690Z,1.60
2023-05-18T08:27:35.368Z,2.20
2023-05-18T08:30:03.200Z,2.10
2023-05-18T08:32:31.988Z,1.80
2023-05-18T08:35:00.431Z,1.70
2023-05-18T08:37:29.386Z,1.80
2023-05-18T08:39:59.575Z,2.00
2023-05-18T08:42:46.041Z,1.90
2023-05-18T08:45:25.164Z,1.60
2023-05-18T08:47:56.397Z,2.20
2023-05-18T08:50:26.539Z,2.00
2023-05-18T08:52:56.027Z,1.70
2023-05-18T08:55:24.037Z,2.00
2023-05-18T08:57:56.292Z,2.40
2023-05-18T09:00:24.522Z,2.20
2023-05-18T09:02:52.632Z,2.00
2023-05-18T09:05:21.464Z,2.20
2023-05-18T09:07:52.519Z,1.90
2023-05-18T09:10:20.323Z,1.40
2023-05-18T09:12:48.836Z,1.90
2023-05-18T09:15:17.560Z,1.90
2023-05-18T09:17:45.344Z,1.90
2023-05-18T09:20:13.108Z,1.80
2023-05-18T09:22:40.962Z,1.70
2023-05-18T09:25:09.724Z,2.20
2023-05-18T09:27:38.135Z,2.00
2023-05-18T09:30:11.114Z,1.80
2023-05-18T09:32:39.162Z,1.50
2023-05-18T09:35:08.246Z,1.60
2023-05-18T09:37:36.216Z,2.20
2023-05-18T09:40:10.229Z,1.70
2023-05-18T09:42:39.263Z,1.60
2023-05-18T09:45:20.424Z,1.70
2023-05-18T09:47:50.361Z,1.70
2023-05-18T09:50:22.973Z,1.70
2023-05-18T09:52:51.037Z,1.70
2023-05-18T09:55:20.021Z,2.30
2023-05-18T09:57:50.264Z,1.90
2023-05-18T10:00:19.950Z,1.80
2023-05-18T10:02:49.327Z,2.30
2023-05-18T10:05:21.781Z,2.10
2023-05-18T10:07:53.024Z,2.20
2023-05-18T10:10:22.712Z,2.00
2023-05-18T10:12:51.053Z,2.00
2023-05-18T10:15:22.484Z,2.10
2023-05-18T10:17:51.405Z,2.20
2023-05-18T10:20:21.231Z,2.10
2023-05-18T10:22:49.772Z,1.80
2023-05-18T10:25:23.107Z,2.10
2023-05-18T10:27:53.075Z,2.00
2023-05-18T10:30:22.853Z,1.70
2023-05-18T10:32:51.372Z,1.80
2023-05-18T10:35:19.366Z,2.00
2023-05-18T10:37:47.991Z,1.90
2023-05-18T10:40:17.398Z,1.80
2023-05-18T10:42:45.893Z,2.10
2023-05-18T10:45:15.591Z,1.90
2023-05-18T10:47:44.559Z,1.80
2023-05-18T10:50:12.754Z,1.70
2023-05-18T10:52:41.505Z,1.60
2023-05-18T10:55:09.439Z,1.90
2023-05-18T10:57:40.744Z,1.90
2023-05-18T11:00:09.471Z,1.80
2023-05-18T11:02:42.281Z,2.20
2023-05-18T11:05:11.383Z,1.50
2023-05-18T11:07:39.300Z,1.60
2023-05-18T11:10:11.161Z,1.30
2023-05-18T11:12:40.733Z,1.60
2023-05-18T11:15:08.964Z,1.90
2023-05-18T11:17:36.739Z,1.70
2023-05-18T11:20:11.873Z,1.70
2023-05-18T11:22:51.502Z,2.10
2023-05-18T11:25:28.330Z,1.70
2023-05-18T11:28:02.221Z,1.50
2023-05-18T11:30:32.860Z,1.50
2023-05-18T11:33:25.117Z,1.70
2023-05-18T11:36:09.230Z,1.60
2023-05-18T11:38:50.202Z,2.20
2023-05-18T11:41:42.655Z,1.70
2023-05-18T11:44:16.453Z,1.80
2023-05-18T11:47:01.362Z,1.60
2023-05-18T11:49:37.881Z,2.00
2023-05-18T11:52:06.952Z,1.80
2023-05-18T11:54:46.960Z,2.10
2023-05-18T11:57:16.379Z,2.10
2023-05-18T11:59:46.538Z,2.00
2023-05-18T12:02:20.863Z,2.00
2023-05-18T12:04:51.573Z,2.00
2023-05-18T12:07:20.314Z,2.00
2023-05-18T12:09:48.453Z,2.20
2023-05-18T12:12:20.406Z,2.00
2023-05-18T12:14:55.236Z,1.60
2023-05-18T12:17:24.600Z,1.80
2023-05-18T12:19:52.457Z,1.90
2023-05-18T12:22:20.185Z,2.40
2023-05-18T12:24:51.326Z,1.90
2023-05-18T12:27:22.914Z,1.80
2023-05-18T12:29:51.030Z,1.90
2023-05-18T12:32:19.323Z,2.00
2023-05-18T12:34:47.018Z,1.60
2023-05-18T12:37:14.679Z,1.90
2023-05-18T12:39:42.306Z,2.10
2023-05-18T12:42:11.634Z,1.50
2023-05-18T12:44:39.388Z,1.60
2023-05-18T12:47:07.104Z,1.90
2023-05-18T12:49:38.834Z,2.00
2023-05-18T12:52:14.324Z,1.80
2023-05-18T12:54:58.336Z,1.70
2023-05-18T12:57:31.048Z,1.90
2023-05-18T12:59:59.143Z,1.80
2023-05-18T13:02:30.765Z,1.60
2023-05-18T13:05:10.149Z,1.50
2023-05-18T13:07:44.994Z,2.20
2023-05-18T13:10:16.679Z,1.80
2023-05-18T13:12:46.775Z,1.50
2023-05-18T13:15:16.303Z,1.80
2023-05-18T13:18:00.618Z,1.40
2023-05-18T13:20:37.107Z,1.70
2023-05-18T13:23:11.047Z,1.40
2023-05-18T13:25:42.693Z,1.60
2023-05-18T13:28:11.465Z,1.50
2023-05-18T13:30:40.959Z,1.30
2023-05-18T13:33:09.235Z,1.40
2023-05-18T13:35:38.134Z,1.40
2023-05-18T13:38:05.917Z,1.90
2023-05-18T13:40:33.530Z,1.40
2023-05-18T13:43:01.165Z,1.40
2023-05-18T13:45:31.021Z,1.30
2023-05-18T13:47:59.346Z,1.60
2023-05-18T13:50:27.182Z,1.80
2023-05-18T13:52:54.893Z,1.60
2023-05-18T13:55:22.979Z,1.70
2023-05-18T13:57:50.859Z,1.50
2023-05-18T14:00:20.608Z,1.60
2023-05-18T14:02:48.321Z,1.70
2023-05-18T14:05:16.478Z,1.70
2023-05-18T14:07:44.503Z,1.50
2023-05-18T14:10:13.137Z,1.60
2023-05-18T14:12:44.009Z,1.50
2023-05-18T14:15:14.006Z,1.40
2023-05-18T14:17:42.783Z,1.60
2023-05-18T14:20:12.016Z,1.80
2023-05-18T14:22:39.921Z,1.60
2023-05-18T14:25:07.966Z,1.90
2023-05-18T14:27:35.658Z,1.20
2023-05-18T14:30:03.832Z,1.40
2023-05-18T14:32:31.536Z,1.50
2023-05-18T14:34:59.237Z,1.30
2023-05-18T14:37:26.863Z,1.70
2023-05-18T14:39:54.494Z,2.00
2023-05-18T14:42:22.109Z,2.60
2023-05-18T14:44:49.805Z,1.80
2023-05-18T14:47:17.943Z,1.80
2023-05-18T14:49:45.706Z,2.00
2023-05-18T14:52:13.494Z,1.00
2023-05-18T14:54:42.261Z,1.40
2023-05-18T14:57:10.096Z,1.20
2023-05-18T14:59:37.712Z,0.90
2023-05-18T15:02:05.979Z,1.90
2023-05-18T15:04:33.663Z,1.40
2023-05-18T15:07:01.391Z,2.20
2023-05-18T15:09:29.073Z,2.40
2023-05-18T15:11:56.774Z,1.70
2023-05-18T15:14:24.448Z,1.60
2023-05-18T15:16:52.074Z,2.30
2023-05-18T15:19:19.952Z,1.70
2023-05-18T15:21:48.635Z,1.50
2023-05-18T15:24:16.276Z,1.80
2023-05-18T15:26:44.233Z,1.40
2023-05-18T15:29:11.864Z,1.40
2023-05-18T15:31:39.966Z,1.10
2023-05-18T15:34:07.708Z,1.40
2023-05-18T15:36:36.564Z,1.70
2023-05-18T15:39:05.036Z,1.40
2023-05-18T15:41:34.159Z,1.40
2023-05-18T15:44:02.117Z,1.80
2023-05-18T15:46:35.742Z,1.20
2023-05-18T15:49:04.072Z,1.40
2023-05-18T15:51:32.128Z,1.30
2023-05-18T15:54:00.368Z,1.50
2023-05-18T15:56:28.212Z,1.30
2023-05-18T15:58:55.897Z,1.50
2023-05-18T16:01:23.693Z,1.40
2023-05-18T16:03:51.581Z,1.20
2023-05-18T16:06:19.302Z,1.30
2023-05-18T16:08:46.956Z,1.10
2023-05-18T16:11:14.634Z,1.40
2023-05-18T16:13:42.310Z,1.20
2023-05-18T16:16:14.139Z,1.00
2023-05-18T16:18:42.623Z,1.10
2023-05-18T16:21:10.650Z,1.30
2023-05-18T16:23:38.260Z,1.10
2023-05-18T16:26:06.007Z,1.20
2023-05-18T16:28:34.451Z,1.30
2023-05-18T16:31:08.203Z,1.40
2023-05-18T16:33:39.793Z,1.30
2023-05-18T16:36:07.673Z,0.80
2023-05-18T16:38:37.302Z,1.10
2023-05-18T16:41:05.261Z,1.60
2023-05-18T16:43:33.951Z,1.40
2023-05-18T16:46:02.002Z,1.30
2023-05-18T16:48:29.640Z,1.50
2023-05-18T16:50:57.528Z,1.20
2023-05-18T16:53:25.167Z,1.50
2023-05-18T16:55:52.886Z,1.20
2023-05-18T16:58:20.969Z,1.70
2023-05-18T17:00:48.602Z,1.40
2023-05-18T17:03:17.403Z,1.40
2023-05-18T17:05:45.572Z,1.70
2023-05-18T17:08:13.764Z,1.60
2023-05-18T17:10:41.516Z,1.50
2023-05-18T17:13:09.208Z,1.70
2023-05-18T17:15:37.050Z,1.70
2023-05-18T17:18:04.835Z,1.50
2023-05-18T17:20:32.778Z,1.90
2023-05-18T17:23:02.003Z,1.60
2023-05-18T17:25:29.981Z,1.70
2023-05-18T17:27:58.706Z,1.40
2023-05-18T17:30:26.325Z,1.60
2023-05-18T17:32:54.807Z,1.80
2023-05-18T17:35:22.539Z,2.20
2023-05-18T17:37:50.260Z,2.50
2023-05-18T17:40:17.872Z,5.10
2023-05-18T17:42:45.484Z,4.30
2023-05-18T17:45:13.195Z,3.50
2023-05-18T17:47:41.853Z,3.10
2023-05-18T17:50:09.842Z,3.30
2023-05-18T17:52:37.475Z,2.70
2023-05-18T17:55:05.621Z,2.90
2023-05-18T17:57:33.707Z,3.10
2023-05-18T18:00:01.721Z,2.80
2023-05-18T18:02:29.649Z,2.60
2023-05-18T18:04:57.420Z,2.50
2023-05-18T18:07:25.345Z,2.40
2023-05-18T18:09:52.978Z,2.60
2023-05-18T18:12:20.628Z,2.60
2023-05-18T18:14:48.295Z,2.70
2023-05-18T18:17:16.024Z,2.70
2023-05-18T18:19:43.645Z,3.10
2023-05-18T18:22:11.275Z,4.10
2023-05-18T18:24:38.964Z,7.60
2023-05-18T18:27:06.688Z,10.20
2023-05-18T18:29:34.700Z,13.10
2023-05-18T18:32:02.408Z,11.40
2023-05-18T18:34:30.037Z,11.40
2023-05-18T18:36:58.888Z,8.70
2023-05-18T18:39:26.865Z,9.20
2023-05-18T18:41:55.232Z,7.30
2023-05-18T18:44:22.870Z,7.00
2023-05-18T18:46:50.643Z,8.20
2023-05-18T18:49:18.393Z,7.20
2023-05-18T18:51:48.001Z,6.80
2023-05-18T18:54:15.890Z,6.40
2023-05-18T18:56:44.010Z,5.60
2023-05-18T18:59:11.767Z,5.30
2023-05-18T19:01:39.495Z,5.00
2023-05-18T19:04:07.160Z,4.90
2023-05-18T19:06:36.642Z,4.50
2023-05-18T19:09:04.447Z,4.50
2023-05-18T19:11:32.096Z,4.10
2023-05-18T19:13:59.861Z,4.10
2023-05-18T19:16:28.136Z,4.10
2023-05-18T19:18:55.948Z,3.30
2023-05-18T19:21:25.489Z,3.00
2023-05-18T19:23:53.357Z,3.70
2023-05-18T19:26:21.547Z,3.60
2023-05-18T19:28:49.251Z,3.50
2023-05-18T19:31:16.916Z,3.30
2023-05-18T19:33:44.568Z,3.90
2023-05-18T19:36:13.735Z,4.00
2023-05-18T19:38:42.299Z,4.40
2023-05-18T19:41:09.980Z,4.00
2023-05-18T19:43:37.645Z,4.50
2023-05-18T19:46:05.465Z,4.50
2023-05-18T19:48:33.386Z,5.10
2023-05-18T19:51:02.463Z,4.50
2023-05-18T19:53:30.524Z,5.10
2023-05-18T19:55:59.681Z,6.50
2023-05-18T19:58:27.357Z,6.80
2023-05-18T20:00:57.363Z,8.50
2023-05-18T20:03:27.639Z,8.50
2023-05-18T20:05:56.247Z,7.90
2023-05-18T20:08:23.888Z,9.30
2023-05-18T20:10:52.511Z,8.80
2023-05-18T20:13:20.593Z,9.10
2023-05-18T20:15:49.787Z,8.30
2023-05-18T20:18:17.569Z,6.30
2023-05-18T20:20:45.315Z,6.60
2023-05-18T20:23:12.969Z,6.40
2023-05-18T20:25:40.702Z,6.40
2023-05-18T20:28:08.358Z,5.70
2023-05-18T20:30:36.406Z,5.80
2023-05-18T20:33:04.772Z,5.90
2023-05-18T20:35:33.570Z,5.50
2023-05-18T20:38:02.557Z,5.40
2023-05-18T20:40:33.517Z,5.30
2023-05-18T20:43:02.416Z,5.60
2023-05-18T20:45:31.307Z,5.00
2023-05-18T20:48:00.076Z,5.60
2023-05-18T20:50:28.137Z,5.80
2023-05-18T20:52:55.814Z,4.80
2023-05-18T20:55:24.037Z,5.40
2023-05-18T20:57:51.887Z,5.50
2023-05-18T21:00:19.924Z,7.60
2023-05-18T21:02:48.625Z,5.10
2023-05-18T21:05:16.581Z,5.20
2023-05-18T21:07:44.314Z,5.20
2023-05-18T21:10:12.074Z,5.60
2023-05-18T21:12:39.705Z,4.40
2023-05-18T21:15:07.889Z,4.50
2023-05-18T21:17:35.713Z,4.70
2023-05-18T21:20:04.067Z,4.60
2023-05-18T21:22:31.727Z,5.40
2023-05-18T21:24:59.679Z,5.50
2023-05-18T21:27:27.528Z,6.30
2023-05-18T21:29:55.243Z,7.50
2023-05-18T21:32:23.114Z,7.30
2023-05-18T21:34:50.893Z,7.40
2023-05-18T21:37:18.521Z,7.90
2023-05-18T21:39:46.802Z,8.00
2023-05-18T21:42:14.473Z,8.20
2023-05-18T21:44:42.115Z,8.10
2023-05-18T21:47:10.227Z,9.40
2023-05-18T21:49:37.848Z,8.80
2023-05-18T21:52:05.625Z,9.40
2023-05-18T21:54:35.375Z,9.40
2023-05-18T21:57:03.155Z,9.10
2023-05-18T21:59:31.116Z,9.60
2023-05-18T22:01:58.831Z,9.20
2023-05-18T22:04:26.545Z,9.30
2023-05-18T22:06:54.624Z,10.40
2023-05-18T22:09:22.396Z,10.10
2023-05-18T22:11:50.025Z,10.30
2023-05-18T22:14:18.183Z,10.90
2023-05-18T22:16:46.793Z,10.10
2023-05-18T22:19:14.487Z,11.60
2023-05-18T22:21:42.191Z,9.80
2023-05-18T22:24:09.808Z,10.80
2023-05-18T22:26:37.405Z,10.80
2023-05-18T22:29:05.113Z,11.40
2023-05-18T22:31:32.836Z,11.90
2023-05-18T22:34:00.759Z,11.50
2023-05-18T22:36:29.408Z,11.40
2023-05-18T22:38:57.700Z,12.20
2023-05-18T22:41:26.072Z,11.40
2023-05-18T22:43:53.717Z,11.60
2023-05-18T22:46:21.467Z,11.00
2023-05-18T22:48:49.157Z,10.60
2023-05-18T22:51:16.795Z,10.70
2023-05-18T22:53:44.406Z,10.70
2023-05-18T22:56:12.088Z,10.70
2023-05-18T22:58:39.721Z,11.00
2023-05-18T23:01:07.323Z,11.10
2023-05-18T23:03:34.958Z,10.50
2023-05-18T23:06:03.300Z,10.60
2023-05-18T23:08:31.288Z,10.70
2023-05-18T23:10:59.071Z,11.00
2023-05-18T23:13:26.703Z,11.10
2023-05-18T23:15:56.165Z,11.60
2023-05-18T23:18:26.595Z,11.10
2023-05-18T23:20:58.566Z,11.80
2023-05-18T23:23:26.609Z,11.00
2023-05-18T23:25:54.703Z,12.20
2023-05-18T23:28:22.329Z,13.00
2023-05-18T23:30:50.001Z,13.80
2023-05-18T23:33:17.955Z,13.10
2023-05-18T23:35:46.763Z,14.20
2023-05-18T23:38:18.417Z,12.20
2023-05-18T23:40:47.269Z,11.50
2023-05-18T23:43:15.153Z,11.80
2023-05-18T23:45:43.060Z,10.80
2023-05-18T23:48:11.366Z,11.90
2023-05-18T23:50:42.081Z,11.40
2023-05-18T23:53:12.061Z,10.90
2023-05-18T23:55:40.468Z,10.60
2023-05-18T23:58:09.150Z,10.80
